Terminal Aerodrome Forecast
Issued by NWS Austin/San Antonio, TX

Home | Current Version | Previous Version | Text Only | Print | Product List | Glossary On
Versions: 1 2 3 4 5 6 7 8 9 10 11 12 13 14 15 16 17 18 19 20 21 22 23 24 25 26 27 28 29 30 31 32 33 34
403
FTUS44 KEWX 181633 AAC
TAFDRT
TAF AMD
KDRT 181633Z 1817/1912 13012KT P6SM BKN030
     FM181715 13012KT P6SM SCT040
     FM190000 10006KT P6SM BKN250=

USA.gov is the U.S. government's official web portal to all federal, state and local government web resources and services.